Elbert, West Virginia
Current Conditions -  °F | °C
As of 9:52 PM on Sunday 21 Dec 2014 (Local Time) from KBLF Reporting Station
Clear Clear  
Wind Chill: 32°   Ceiling: Unl
Heat Index: 39°   Visibility: 10mi
Dew Point: 31°   Wind: 12mph
Humidity: 73%   Direction: 140°SE
Pressure: 30.12"   Gusts: NA
Location:  37.34°N, 81.54°W
Report Text: KBLF 220252Z AUTO 14010KT 10SM CLR 04/M01 A3012 RMK AO2 SLP207 T00391006 58001
Loading
Personal Weather Stations






























Interactive Weather Map New forecast layout! Learn more

10-Day Weather Forecast

Advertisements
Track Severe Weather on mobile